Time;durP1;ratioP1;P1;durP2;ratioP2;P2;SDS_P1;SDS_P2;PMS_P1;PMS_P2;Temp;Humidity;BMP_temperature;BMP_pressure;BME280_temperature;BME280_humidity;BME280_pressure;Samples;Min_cycle;Max_cycle;Signal;HPM_P1;HPM_P2
2022/08/06 00:01:44;;;;;;;4.60;4.22;;;;;;;21.93;64.95;96365.20;1666905;84;21016;-84
2022/08/06 00:04:11;;;;;;;5.03;4.53;;;;;;;21.90;65.01;96367.03;1672822;84;20984;-85
2022/08/06 00:06:36;;;;;;;5.10;4.60;;;;;;;21.90;65.08;96368.88;1673793;84;20984;-84
2022/08/06 00:09:02;;;;;;;4.67;4.20;;;;;;;21.91;64.88;96367.83;1678196;84;20999;-84
2022/08/06 00:11:28;;;;;;;5.25;4.85;;;;;;;21.91;64.98;96362.54;1650482;84;20969;-85
2022/08/06 00:13:54;;;;;;;5.03;4.62;;;;;;;21.90;65.03;96368.36;1665006;84;20988;-84
2022/08/06 00:16:20;;;;;;;5.37;4.58;;;;;;;21.91;64.98;96365.98;1673297;84;20980;-85
2022/08/06 00:18:45;;;;;;;4.75;4.35;;;;;;;21.91;65.18;96368.62;1673688;84;21016;-86
2022/08/06 00:21:11;;;;;;;9.10;8.20;;;;;;;21.90;65.19;96392.69;1669422;84;21027;-86
2022/08/06 00:23:37;;;;;;;10.35;9.35;;;;;;;21.80;65.70;96429.92;1680377;84;21055;-85
2022/08/06 00:26:02;;;;;;;10.10;9.20;;;;;;;21.59;66.03;96428.13;1684427;84;21323;-85
2022/08/06 00:28:28;;;;;;;8.88;8.08;;;;;;;21.42;66.32;96444.08;1679734;84;21018;-85
2022/08/06 00:30:54;;;;;;;8.78;7.95;;;;;;;21.39;66.33;96451.19;1685973;84;21023;-85
2022/08/06 00:33:20;;;;;;;9.48;8.55;;;;;;;21.46;66.65;96437.77;1681875;83;21551;-84
2022/08/06 00:35:46;;;;;;;9.20;7.78;;;;;;;21.50;66.82;96450.26;1677917;84;21084;-84
2022/08/06 00:38:13;;;;;;;8.25;7.35;;;;;;;21.53;66.47;96448.95;1681098;84;21043;-84
2022/08/06 00:40:39;;;;;;;8.13;7.35;;;;;;;21.59;66.06;96455.88;1684286;84;21082;-85
2022/08/06 00:43:05;;;;;;;7.17;6.58;;;;;;;21.70;65.72;96454.14;1643943;84;21009;-84
2022/08/06 00:45:32;;;;;;;8.03;7.33;;;;;;;21.79;65.49;96456.59;1676951;84;20956;-86
2022/08/06 00:47:59;;;;;;;7.78;6.97;;;;;;;21.84;65.45;96458.78;1676831;84;21024;-84
2022/08/06 00:50:25;;;;;;;8.65;7.85;;;;;;;21.87;65.63;96462.24;1680612;84;20960;-84
2022/08/06 00:52:51;;;;;;;8.75;7.42;;;;;;;21.87;66.00;96460.12;1677303;84;21402;-84
2022/08/06 00:55:17;;;;;;;7.55;6.78;;;;;;;21.87;66.43;96454.31;1673823;84;21011;-84
2022/08/06 00:57:43;;;;;;;7.50;6.90;;;;;;;21.86;66.43;96456.68;1674790;84;21043;-85
2022/08/06 01:00:09;;;;;;;9.85;7.35;;;;;;;21.86;66.43;96456.68;1692174;83;21407;-86
2022/08/06 01:02:35;;;;;;;8.15;7.08;;;;;;;21.87;66.15;96460.92;1684685;83;20940;-85
2022/08/06 01:05:01;;;;;;;8.68;7.37;;;;;;;21.85;66.05;96457.73;1693691;83;21030;-85
2022/08/06 01:07:27;;;;;;;8.68;7.78;;;;;;;21.95;65.91;96466.79;1688369;83;20951;-85
2022/08/06 01:09:53;;;;;;;8.25;7.50;;;;;;;21.99;65.79;96470.55;1690925;83;21063;-84
2022/08/06 01:12:18;;;;;;;7.78;7.12;;;;;;;22.01;65.76;96470.56;1685963;83;21133;-86
2022/08/06 01:14:44;;;;;;;8.58;7.72;;;;;;;22.02;65.63;96477.45;1687596;83;21420;-86
2022/08/06 01:17:30;;;;;;;8.23;7.40;;;;;;;22.01;65.67;96478.50;1690212;83;20979;-85
2022/08/06 01:20:21;;;;;;;9.55;7.65;;;;;;;22.00;65.84;96482.73;1694179;83;21038;-85
2022/08/06 01:23:14;;;;;;;7.95;7.10;;;;;;;21.96;66.01;96477.64;1697190;83;21022;-86
2022/08/06 01:26:15;;;;;;;8.58;7.50;;;;;;;21.94;66.11;96495.62;1692732;83;21440;-85
2022/08/06 01:28:51;;;;;;;9.98;7.65;;;;;;;21.90;66.13;96497.17;1697053;83;21020;-84
2022/08/06 01:31:54;;;;;;;12.35;8.05;;;;;;;21.87;66.42;96499.80;1690938;83;21087;-85
2022/08/06 01:34:34;;;;;;;10.03;8.20;;;;;;;21.83;66.55;96500.83;1697988;83;21468;-84
2022/08/06 01:37:25;;;;;;;8.78;7.95;;;;;;;21.79;66.82;96509.49;1693192;83;21390;-85
2022/08/06 01:39:56;;;;;;;8.90;8.05;;;;;;;21.75;67.00;96515.02;1685449;83;21425;-86
2022/08/06 01:42:22;;;;;;;8.95;8.08;;;;;;;21.73;67.16;96511.30;1690375;83;21044;-86
2022/08/06 01:44:49;;;;;;;8.88;7.87;;;;;;;21.69;67.28;96513.38;1692024;83;21004;-86
2022/08/06 01:47:18;;;;;;;9.13;8.23;;;;;;;21.66;67.44;96516.52;1682169;82;21046;-86
2022/08/06 01:49:48;;;;;;;8.53;7.67;;;;;;;21.65;67.46;96515.72;1685138;83;20987;-85
2022/08/06 01:52:14;;;;;;;9.53;8.28;;;;;;;21.64;67.54;96515.45;1690191;83;21493;-86
2022/08/06 01:54:42;;;;;;;8.80;7.90;;;;;;;21.64;67.43;96515.45;1694726;83;21354;-86
2022/08/06 01:57:08;;;;;;;8.80;7.50;;;;;;;21.63;67.69;96515.67;1666558;83;21066;-86
2022/08/06 01:59:38;;;;;;;9.43;8.50;;;;;;;21.60;67.61;96516.97;1668050;82;21044;-85
2022/08/06 02:02:07;;;;;;;9.73;8.50;;;;;;;21.56;67.71;96512.70;1713475;82;21050;-86
2022/08/06 02:04:37;;;;;;;10.25;8.60;;;;;;;21.53;67.79;96513.20;1711472;82;21046;-85
2022/08/06 02:07:04;;;;;;;8.93;8.08;;;;;;;21.50;68.05;96515.55;1712469;82;21101;-85
2022/08/06 02:09:29;;;;;;;9.05;8.15;;;;;;;21.46;68.03;96516.55;1705781;82;21030;-86
2022/08/06 02:12:09;;;;;;;8.78;7.83;;;;;;;21.45;68.00;96521.56;1711197;82;21586;-86
2022/08/06 02:14:39;;;;;;;8.90;8.00;;;;;;;21.46;68.11;96527.64;1710684;82;21442;-84
2022/08/06 02:17:05;;;;;;;9.28;8.00;;;;;;;21.42;68.03;96525.22;1708663;82;21033;-84
2022/08/06 02:19:30;;;;;;;9.40;8.48;;;;;;;21.42;68.00;96526.55;1713588;82;20985;-84
2022/08/06 02:21:56;;;;;;;9.43;7.62;;;;;;;21.39;68.11;96529.69;1707077;82;20966;-84
2022/08/06 02:24:22;;;;;;;9.35;6.95;;;;;;;21.37;68.19;96527.30;1680503;84;20952;-84
2022/08/06 02:26:48;;;;;;;8.10;7.40;;;;;;;21.32;68.27;96535.17;1647118;84;21433;-85
2022/08/06 02:29:16;;;;;;;7.40;6.70;;;;;;;21.30;68.26;96537.23;1680511;84;20983;-85
2022/08/06 02:31:43;;;;;;;8.40;7.55;;;;;;;21.30;68.21;96533.27;1704834;82;21022;-85
2022/08/06 02:34:09;;;;;;;7.53;6.83;;;;;;;21.31;68.23;96539.35;1709024;82;21391;-85
2022/08/06 02:36:46;;;;;;;8.30;7.40;;;;;;;21.29;68.45;96543.56;1705968;82;21070;-85
2022/08/06 02:39:38;;;;;;;7.45;6.72;;;;;;;21.25;68.27;96547.75;1698009;82;20998;-85
2022/08/06 02:42:21;;;;;;;6.97;6.28;;;;;;;21.21;68.33;96547.41;1703932;82;21539;-85
2022/08/06 02:45:11;;;;;;;8.20;6.42;;;;;;;21.17;68.39;96548.16;1703873;82;21082;-85
2022/08/06 02:47:51;;;;;;;8.78;6.47;;;;;;;21.15;68.51;96556.82;1708257;82;21018;-84
2022/08/06 02:50:20;;;;;;;7.03;5.75;;;;;;;21.15;68.49;96560.78;1706805;82;21043;-85
2022/08/06 02:52:51;;;;;;;8.93;7.00;;;;;;;21.14;68.50;96561.83;1708177;82;20970;-85
2022/08/06 02:55:19;;;;;;;7.67;6.50;;;;;;;21.14;68.50;96565.80;1706418;82;20982;-84
2022/08/06 02:57:56;;;;;;;8.75;7.12;;;;;;;21.13;68.48;96561.55;1705647;82;21003;-84
2022/08/06 03:00:22;;;;;;;7.20;6.50;;;;;;;21.12;68.43;96560.75;1690739;82;20995;-84
2022/08/06 03:02:48;;;;;;;7.08;6.47;;;;;;;21.09;68.44;96559.92;1688841;82;21394;-85
2022/08/06 03:05:17;;;;;;;7.60;6.80;;;;;;;21.06;68.54;96564.91;1696618;83;20944;-84
2022/08/06 03:07:42;;;;;;;7.42;6.62;;;;;;;21.06;68.54;96564.91;1660309;83;21051;-85
2022/08/06 03:10:08;;;;;;;8.53;7.05;;;;;;;21.03;68.59;96568.03;1686509;83;21074;-86
2022/08/06 03:12:35;;;;;;;7.53;6.42;;;;;;;21.02;68.62;96571.20;1692121;83;21051;-86
2022/08/06 03:15:02;;;;;;;6.45;5.75;;;;;;;21.04;68.58;96577.04;1696227;83;21366;-86
2022/08/06 03:17:28;;;;;;;7.15;6.55;;;;;;;21.03;68.64;96578.61;1702180;83;20959;-86
2022/08/06 03:19:54;;;;;;;7.65;6.15;;;;;;;21.01;68.56;96587.30;1696814;83;21055;-86
2022/08/06 03:22:19;;;;;;;6.55;5.80;;;;;;;20.98;68.72;96593.84;1687152;83;21052;-86
2022/08/06 03:24:45;;;;;;;6.53;5.72;;;;;;;20.95;68.71;96604.38;1689515;83;20971;-86
2022/08/06 03:27:11;;;;;;;7.25;6.30;;;;;;;20.93;68.83;96607.78;1688239;83;20965;-85
2022/08/06 03:29:37;;;;;;;7.53;5.65;;;;;;;20.92;68.83;96611.46;1691342;83;21489;-84
2022/08/06 03:32:03;;;;;;;7.87;5.45;;;;;;;20.90;68.91;96609.59;1692485;83;21398;-84
2022/08/06 03:34:29;;;;;;;6.67;5.97;;;;;;;20.89;69.00;96617.23;1689922;83;21107;-84
2022/08/06 03:36:56;;;;;;;6.12;5.53;;;;;;;20.88;68.98;96610.88;1692247;83;21441;-84
2022/08/06 03:39:21;;;;;;;7.78;5.90;;;;;;;20.89;68.99;96618.55;1673979;83;21030;-84
2022/08/06 03:41:47;;;;;;;6.80;6.10;;;;;;;20.90;69.02;96621.47;1658569;85;21027;-85
2022/08/06 03:44:13;;;;;;;6.17;5.58;;;;;;;20.90;69.17;96618.03;1644120;85;21412;-84
2022/08/06 03:46:50;;;;;;;6.20;5.55;;;;;;;20.90;69.13;96628.08;1641109;83;21011;-84
2022/08/06 03:49:36;;;;;;;7.25;6.50;;;;;;;20.90;69.07;96630.72;1695564;83;21007;-86
2022/08/06 03:52:02;;;;;;;6.40;5.30;;;;;;;20.89;69.07;96637.05;1690121;83;21008;-85
2022/08/06 03:54:33;;;;;;;8.80;5.55;;;;;;;20.89;69.10;96640.20;1692092;83;21413;-86
2022/08/06 03:57:06;;;;;;;9.58;7.08;;;;;;;20.90;69.15;96645.24;1701727;83;21097;-86
2022/08/06 03:59:32;;;;;;;6.45;5.42;;;;;;;20.87;69.25;96649.69;1687581;83;21016;-86
2022/08/06 04:01:58;;;;;;;5.67;4.97;;;;;;;20.84;69.24;96651.50;1674472;84;21028;-86
2022/08/06 04:04:23;;;;;;;7.25;5.53;;;;;;;20.84;69.33;96655.46;1669535;84;21067;-85
2022/08/06 04:06:49;;;;;;;6.65;5.65;;;;;;;20.84;69.39;96659.94;1677754;84;20979;-86
2022/08/06 04:09:15;;;;;;;6.50;5.55;;;;;;;20.85;69.50;96667.63;1672617;83;21067;-86
2022/08/06 04:11:41;;;;;;;6.17;5.60;;;;;;;20.84;69.58;96671.30;1669598;83;21078;-86
2022/08/06 04:14:07;;;;;;;5.70;5.20;;;;;;;20.84;69.44;96682.39;1669564;84;21006;-86
2022/08/06 04:16:32;;;;;;;7.03;5.72;;;;;;;20.85;69.53;96682.15;1682851;84;21547;-85
2022/08/06 04:18:58;;;;;;;5.40;4.83;;;;;;;20.86;69.59;96692.98;1671686;84;21068;-84
2022/08/06 04:21:24;;;;;;;6.37;5.75;;;;;;;20.86;69.59;96692.98;1676932;84;21000;-86
2022/08/06 04:23:50;;;;;;;7.25;5.58;;;;;;;20.85;69.78;96688.75;1654047;84;21019;-84
2022/08/06 04:26:19;;;;;;;5.50;4.97;;;;;;;20.86;69.88;96700.11;1664057;84;20988;-85
2022/08/06 04:28:48;;;;;;;5.97;5.47;;;;;;;20.87;70.04;96694.59;1675611;84;21329;-85
2022/08/06 04:31:14;;;;;;;6.00;5.47;;;;;;;20.89;70.13;96705.72;1679078;84;21045;-85
2022/08/06 04:33:39;;;;;;;6.90;5.47;;;;;;;20.70;70.10;96680.56;1675447;84;21489;-85
2022/08/06 04:36:06;;;;;;;6.20;4.92;;;;;;;20.87;70.08;96705.67;1697181;84;21043;-83
2022/08/06 04:38:32;;;;;;;6.08;5.47;;;;;;;20.89;70.30;96706.23;1685066;84;21342;-84
2022/08/06 04:40:58;;;;;;;6.85;6.20;;;;;;;20.86;70.34;96717.28;1675745;84;21012;-85
2022/08/06 04:43:24;;;;;;;5.62;4.87;;;;;;;20.86;70.55;96718.60;1675412;84;20992;-85
2022/08/06 04:45:50;;;;;;;6.47;5.42;;;;;;;20.87;70.49;96719.68;1675308;84;21437;-85
2022/08/06 04:48:17;;;;;;;6.10;5.50;;;;;;;20.93;70.58;96728.48;1671176;84;20929;-85
2022/08/06 04:50:42;;;;;;;6.45;5.28;;;;;;;20.94;70.62;96731.41;1673025;84;21089;-85
2022/08/06 04:53:12;;;;;;;6.05;5.45;;;;;;;20.95;70.63;96731.16;1668065;83;20959;-85
2022/08/06 04:55:38;;;;;;;8.18;6.05;;;;;;;20.98;70.71;96739.13;1678449;84;21007;-85
2022/08/06 04:58:06;;;;;;;6.25;5.60;;;;;;;21.01;70.94;96747.92;1670170;84;21382;-86
2022/08/06 05:00:33;;;;;;;7.50;5.60;;;;;;;21.02;71.09;96752.16;1671894;83;21087;-85
2022/08/06 05:02:59;;;;;;;5.25;4.75;;;;;;;21.04;71.03;96762.48;1687223;83;21044;-86
2022/08/06 05:05:25;;;;;;;5.55;5.05;;;;;;;21.05;71.03;96768.84;1685932;83;21764;-85
2022/08/06 05:07:53;;;;;;;5.30;4.90;;;;;;;21.07;71.09;96772.05;1688206;83;21030;-85
2022/08/06 05:10:20;;;;;;;5.97;5.08;;;;;;;21.08;71.04;96772.33;1686455;83;21024;-86
2022/08/06 05:12:47;;;;;;;5.67;5.15;;;;;;;21.06;71.29;96777.58;1687449;83;21031;-85
2022/08/06 05:15:24;;;;;;;5.87;5.28;;;;;;;21.07;71.30;96785.78;1692316;83;20998;-86
2022/08/06 05:17:58;;;;;;;5.53;5.00;;;;;;;21.09;71.58;96791.11;1688011;83;21107;-85
2022/08/06 05:20:24;;;;;;;6.22;5.50;;;;;;;21.09;71.64;96791.11;1689498;83;21418;-84
2022/08/06 05:22:53;;;;;;;8.53;5.03;;;;;;;21.11;71.76;96797.47;1680974;83;21066;-84
2022/08/06 05:25:20;;;;;;;6.53;4.97;;;;;;;21.12;71.77;96793.78;1688518;83;21064;-84
2022/08/06 05:27:45;;;;;;;5.78;5.25;;;;;;;21.14;71.76;96803.59;1682716;83;21453;-86
2022/08/06 05:30:12;;;;;;;6.37;5.78;;;;;;;21.14;71.94;96806.23;1685663;83;20992;-85
2022/08/06 05:32:41;;;;;;;6.12;4.87;;;;;;;21.13;72.12;96809.40;1688572;83;20983;-85
2022/08/06 05:35:08;;;;;;;6.33;5.72;;;;;;;21.10;72.12;96826.25;1684462;83;21035;-84
2022/08/06 05:37:33;;;;;;;5.62;5.12;;;;;;;21.08;72.15;96830.98;1690762;83;21067;-84
2022/08/06 05:39:59;;;;;;;6.05;5.03;;;;;;;21.09;72.58;96835.22;1690062;83;20999;-86
2022/08/06 05:42:25;;;;;;;6.30;5.72;;;;;;;21.09;72.80;96845.27;1690059;83;21091;-86
2022/08/06 05:44:50;;;;;;;6.10;5.53;;;;;;;21.08;72.77;96837.58;1689733;83;21014;-85
2022/08/06 05:47:20;;;;;;;5.58;5.08;;;;;;;21.07;73.52;96845.23;1690326;83;21051;-85
2022/08/06 05:49:49;;;;;;;7.37;5.40;;;;;;;21.05;73.21;96848.11;1683941;83;22217;-86
2022/08/06 05:52:35;;;;;;;6.67;5.97;;;;;;;21.02;73.35;96845.94;1695193;83;20996;-84
2022/08/06 05:55:22;;;;;;;5.83;5.25;;;;;;;21.01;73.55;96855.43;1658103;84;21011;-84
2022/08/06 05:58:04;;;;;;;7.70;6.08;;;;;;;21.03;73.86;96854.67;1689094;83;21016;-84
2022/08/06 06:00:32;;;;;;;6.00;5.50;;;;;;;21.03;73.89;96858.11;1690196;83;21031;-84
2022/08/06 06:02:59;;;;;;;6.62;5.65;;;;;;;21.07;74.03;96864.52;1689310;83;21009;-84
2022/08/06 06:05:25;;;;;;;7.10;6.10;;;;;;;21.11;74.24;96864.33;1685196;83;20931;-84
2022/08/06 06:07:52;;;;;;;6.62;5.60;;;;;;;21.14;74.54;96867.01;1688134;83;21004;-84
2022/08/06 06:10:18;;;;;;;5.37;4.92;;;;;;;21.15;74.19;96865.48;1690961;83;20968;-84
2022/08/06 06:12:43;;;;;;;6.33;5.40;;;;;;;21.19;74.80;96862.64;1665627;84;21028;-85
2022/08/06 06:15:10;;;;;;;7.08;5.97;;;;;;;21.20;75.00;96864.77;1685497;83;21332;-84
2022/08/06 06:18:08;;;;;;;6.42;5.83;;;;;;;21.18;74.94;96865.00;1706312;83;21006;-85
2022/08/06 06:21:03;;;;;;;6.92;6.22;;;;;;;21.16;75.37;96859.16;1691447;83;21024;-84
2022/08/06 06:23:58;;;;;;;6.53;5.92;;;;;;;21.10;75.02;96861.92;1687703;83;21135;-83
2022/08/06 06:26:52;;;;;;;7.22;5.42;;;;;;;21.10;75.54;96874.61;1680674;83;21091;-86
2022/08/06 06:29:34;;;;;;;;;;;;;;;21.10;75.45;96879.09;1694707;83;21071;-86
2022/08/06 06:32:26;;;;;;;6.47;5.87;;;;;;;21.15;76.04;96884.47;1685890;83;20142;-86
2022/08/06 06:35:01;;;;;;;8.73;7.00;;;;;;;21.16;75.75;96894.02;1685478;83;21020;-86
2022/08/06 06:37:52;;;;;;;7.85;6.12;;;;;;;21.15;76.09;96896.36;1694912;83;21028;-86
2022/08/06 06:40:29;;;;;;;6.65;5.97;;;;;;;21.14;76.16;96905.33;1679428;83;20964;-86
2022/08/06 06:43:05;;;;;;;6.50;5.95;;;;;;;21.11;76.08;96912.41;1696062;83;21050;-86
2022/08/06 06:45:42;;;;;;;7.15;5.90;;;;;;;21.06;76.20;96910.48;1698463;83;20998;-86
2022/08/06 06:48:37;;;;;;;6.20;5.60;;;;;;;21.05;76.82;96916.00;1687810;83;21031;-87
2022/08/06 06:51:07;;;;;;;7.10;6.05;;;;;;;21.00;76.88;96914.07;1697164;83;21034;-86
2022/08/06 06:53:37;;;;;;;6.53;5.87;;;;;;;20.98;76.85;96922.72;1685035;83;21029;-86
2022/08/06 06:56:03;;;;;;;7.75;7.05;;;;;;;20.96;77.07;96922.95;1688060;84;21029;-86
2022/08/06 06:58:42;;;;;;;6.30;5.67;;;;;;;20.96;77.22;96923.48;1683708;83;20964;-84
2022/08/06 07:01:10;;;;;;;8.33;6.58;;;;;;;20.97;77.84;96928.52;1675873;83;21028;-85
2022/08/06 07:03:38;;;;;;;7.60;6.40;;;;;;;21.00;77.37;96929.12;1671698;84;21034;-85
2022/08/06 07:06:05;;;;;;;9.05;8.08;;;;;;;21.02;77.89;96935.77;1688298;84;21433;-85
2022/08/06 07:08:32;;;;;;;9.10;6.42;;;;;;;21.02;77.46;96942.38;1682087;84;20999;-84
2022/08/06 07:10:58;;;;;;;7.70;6.90;;;;;;;21.03;77.58;96937.89;1646740;84;21031;-84
2022/08/06 07:13:23;;;;;;;9.85;8.93;;;;;;;21.06;77.73;96936.90;1682785;84;22021;-84
2022/08/06 07:15:49;;;;;;;8.10;7.05;;;;;;;21.04;77.69;96940.81;1679041;83;20941;-84
2022/08/06 07:18:15;;;;;;;6.08;5.45;;;;;;;21.02;77.83;96943.70;1688236;84;21086;-84
2022/08/06 07:20:40;;;;;;;6.67;5.95;;;;;;;21.06;78.35;96944.02;1680254;83;21368;-84
2022/08/06 07:23:08;;;;;;;7.42;6.72;;;;;;;21.07;78.69;96942.47;1651251;84;21461;-84
2022/08/06 07:25:40;;;;;;;6.58;5.58;;;;;;;21.05;78.24;96946.38;1680347;84;21059;-85
2022/08/06 07:28:07;;;;;;;6.42;5.80;;;;;;;21.07;78.50;96954.36;1650181;84;21015;-84
2022/08/06 07:30:33;;;;;;;6.67;6.08;;;;;;;21.09;78.71;96955.44;1654368;84;21167;-85
2022/08/06 07:32:58;;;;;;;9.20;6.60;;;;;;;21.08;78.56;96950.67;1668491;84;21044;-84
2022/08/06 07:35:25;;;;;;;6.28;5.67;;;;;;;21.04;78.45;96944.78;1683526;83;21035;-85
2022/08/06 07:37:59;;;;;;;7.10;5.47;;;;;;;21.06;79.08;96943.50;1651586;84;20982;-85
2022/08/06 07:40:29;;;;;;;6.15;4.95;;;;;;;21.07;78.71;96945.11;1672514;84;21019;-85
2022/08/06 07:43:15;;;;;;;6.50;5.72;;;;;;;21.06;78.77;96944.02;1673913;84;21450;-84
2022/08/06 07:45:41;;;;;;;5.33;4.83;;;;;;;21.05;78.98;96943.22;1670752;84;21065;-85
2022/08/06 07:48:12;;;;;;;6.85;5.17;;;;;;;21.03;79.21;96952.42;1676516;84;21095;-84
2022/08/06 07:50:39;;;;;;;6.15;5.65;;;;;;;21.03;79.23;96947.94;1670484;84;21036;-85
2022/08/06 07:53:05;;;;;;;5.87;4.62;;;;;;;21.06;79.26;96950.63;1672064;84;20984;-85
2022/08/06 07:55:31;;;;;;;5.12;4.67;;;;;;;21.08;79.61;96963.08;1668147;84;21016;-86
2022/08/06 07:57:57;;;;;;;5.10;4.62;;;;;;;21.09;79.46;96962.84;1655524;84;21052;-85
2022/08/06 08:00:23;;;;;;;5.08;4.58;;;;;;;21.10;79.17;96964.97;1692332;83;21379;-84
2022/08/06 08:08:20;;;;;;;5.15;4.65;;;;;;;21.05;79.55;96980.73;1687838;84;21042;-84
2022/08/06 08:10:46;;;;;;;3.47;2.52;;;;;;;21.05;79.79;96992.62;1687478;83;21344;-85
2022/08/06 08:13:11;;;;;;;3.10;1.98;;;;;;;20.96;79.31;97005.37;1689499;83;21102;-85
2022/08/06 08:15:38;;;;;;;2.47;1.60;;;;;;;20.75;79.43;97011.25;1690322;83;20995;-84
2022/08/06 08:18:04;;;;;;;2.42;1.62;;;;;;;20.62;79.70;97024.16;1688559;84;20999;-83
2022/08/06 08:20:30;;;;;;;1.30;0.60;;;;;;;20.48;79.87;97026.22;1683043;84;21711;-84
2022/08/06 08:22:56;;;;;;;2.45;0.90;;;;;;;20.29;79.99;97033.41;1690314;84;21011;-85
2022/08/06 08:25:22;;;;;;;1.60;0.70;;;;;;;20.12;80.36;97040.88;1696439;84;20988;-85
2022/08/06 08:27:48;;;;;;;1.98;0.60;;;;;;;19.98;81.12;97038.95;1660020;86;21355;-84
2022/08/06 08:30:14;;;;;;;1.32;0.50;;;;;;;19.81;80.86;97040.61;1686974;84;21027;-84
2022/08/06 08:32:40;;;;;;;2.70;0.72;;;;;;;19.71;81.99;97049.88;1687811;84;21364;-83
2022/08/06 08:35:06;;;;;;;1.22;0.62;;;;;;;19.55;81.83;97047.05;1694275;84;21019;-85
2022/08/06 08:37:32;;;;;;;1.30;0.70;;;;;;;19.47;82.54;97052.06;1696159;84;21076;-84
2022/08/06 08:39:58;;;;;;;2.50;0.57;;;;;;;19.39;82.69;97055.02;1692710;84;20979;-84
2022/08/06 08:42:33;;;;;;;1.67;0.90;;;;;;;19.31;83.07;97057.94;1691660;84;20944;-84
2022/08/06 08:45:00;;;;;;;1.40;0.60;;;;;;;19.24;83.16;97058.02;1689852;84;21032;-84
2022/08/06 08:47:28;;;;;;;2.33;1.00;;;;;;;19.19;83.42;97056.02;1692303;83;21410;-84
2022/08/06 08:49:55;;;;;;;1.60;0.90;;;;;;;19.18;83.69;97064.15;1665679;85;21042;-85
2022/08/06 08:52:28;;;;;;;1.80;1.02;;;;;;;19.12;83.84;97064.52;1696479;84;21023;-87
2022/08/06 08:54:57;;;;;;;2.70;1.00;;;;;;;19.04;83.79;97071.41;1693563;83;21516;-87
2022/08/06 08:57:22;;;;;;;2.10;1.10;;;;;;;18.99;84.02;97076.50;1691888;84;20984;-87
2022/08/06 08:59:48;;;;;;;1.30;1.20;;;;;;;18.94;84.22;97077.67;1688717;84;21359;-88
2022/08/06 09:02:14;;;;;;;1.25;0.95;;;;;;;18.89;84.17;97078.84;1700079;83;21093;-87
2022/08/06 09:04:40;;;;;;;1.50;0.98;;;;;;;18.78;84.02;97086.12;1702651;83;21101;-86
2022/08/06 09:07:07;;;;;;;2.70;1.42;;;;;;;18.73;84.78;97080.20;1708356;83;20982;-88
2022/08/06 09:09:34;;;;;;;1.75;1.20;;;;;;;18.74;84.71;97087.59;1697882;83;21370;-87
2022/08/06 09:12:00;;;;;;;1.45;1.10;;;;;;;18.71;84.56;97081.41;1706188;83;20991;-88
2022/08/06 09:14:26;;;;;;;2.47;1.42;;;;;;;18.67;85.22;97085.00;1702731;83;21030;-87
2022/08/06 09:16:52;;;;;;;3.40;1.37;;;;;;;18.61;85.62;97084.52;1694584;83;21412;-87
2022/08/06 09:19:18;;;;;;;2.30;1.72;;;;;;;18.54;84.87;97082.44;1700910;83;21033;-85
2022/08/06 09:21:44;;;;;;;2.58;1.40;;;;;;;18.52;85.08;97092.38;1696969;83;21001;-87
2022/08/06 09:24:09;;;;;;;1.77;1.30;;;;;;;18.52;85.21;97089.23;1685382;83;21390;-86
2022/08/06 09:26:35;;;;;;;2.65;1.35;;;;;;;18.51;85.40;97093.40;1699271;83;20998;-86
2022/08/06 09:29:01;;;;;;;1.65;1.05;;;;;;;18.46;85.48;97090.09;1701589;83;21026;-87
2022/08/06 09:31:26;;;;;;;2.37;1.10;;;;;;;18.39;85.31;97098.56;1701408;83;21448;-87
2022/08/06 09:34:06;;;;;;;2.12;1.00;;;;;;;18.37;85.26;97101.09;1687212;83;21035;-86
2022/08/06 09:36:46;;;;;;;1.90;0.90;;;;;;;18.35;85.27;97103.13;1693638;83;21210;-85
2022/08/06 09:39:12;;;;;;;1.10;0.75;;;;;;;18.33;85.53;97099.91;1688887;83;21035;-86
2022/08/06 09:41:52;;;;;;;1.45;0.80;;;;;;;18.36;85.71;97104.73;1690836;83;21034;-86
2022/08/06 09:44:18;;;;;;;1.25;0.70;;;;;;;18.37;85.93;97109.78;1696158;83;20976;-85
2022/08/06 09:46:47;;;;;;;1.52;0.80;;;;;;;18.39;85.82;97113.03;1704406;83;20970;-86
2022/08/06 09:49:14;;;;;;;1.35;0.70;;;;;;;18.38;85.71;97110.59;1693831;83;21011;-86
2022/08/06 09:51:41;;;;;;;2.12;0.78;;;;;;;18.36;85.67;97116.06;1693764;83;21017;-86
2022/08/06 09:54:18;;;;;;;1.00;0.80;;;;;;;18.34;85.80;97118.11;1689906;83;21091;-85
2022/08/06 09:56:46;;;;;;;2.08;1.10;;;;;;;18.26;85.53;97119.70;1694298;83;21453;-86
2022/08/06 09:59:12;;;;;;;1.00;0.70;;;;;;;18.14;85.67;97119.55;1689374;83;21090;-85
2022/08/06 10:01:45;;;;;;;2.25;0.72;;;;;;;18.11;86.05;97127.06;1669806;84;21071;-85
2022/08/06 10:04:26;;;;;;;1.62;0.98;;;;;;;18.09;86.22;97123.84;1683707;83;21003;-85
2022/08/06 10:07:01;;;;;;;1.37;0.68;;;;;;;18.06;86.26;97129.50;1690024;83;21115;-85
2022/08/06 10:09:27;;;;;;;2.25;0.90;;;;;;;18.05;86.42;97127.89;1683232;83;20978;-85
2022/08/06 10:11:54;;;;;;;0.80;0.80;;;;;;;18.03;86.41;97126.79;1691377;83;21387;-84
2022/08/06 10:14:31;;;;;;;1.25;0.82;;;;;;;18.00;86.38;97136.41;1694755;83;21059;-86
2022/08/06 10:17:05;;;;;;;1.32;0.93;;;;;;;18.01;86.75;97135.40;1692570;83;21360;-85
2022/08/06 10:19:30;;;;;;;3.22;1.55;;;;;;;18.02;86.56;97140.15;1663341;84;20961;-86
2022/08/06 10:22:06;;;;;;;4.40;1.40;;;;;;;18.02;86.63;97137.52;1689536;83;21289;-85
2022/08/06 10:24:42;;;;;;;1.47;1.30;;;;;;;18.00;86.54;97143.80;1680554;83;21037;-85
2022/08/06 10:27:11;;;;;;;2.20;1.47;;;;;;;18.03;86.98;97143.87;1698380;83;21260;-85
2022/08/06 10:29:51;;;;;;;2.10;1.42;;;;;;;17.91;86.89;97128.48;1695094;83;22170;-86
2022/08/06 10:32:24;;;;;;;4.55;2.77;;;;;;;17.88;86.71;97134.95;1694494;83;21002;-85
2022/08/06 10:34:51;;;;;;;3.25;2.67;;;;;;;17.90;86.52;97161.86;1621307;87;21380;-85
2022/08/06 10:37:17;;;;;;;3.30;2.80;;;;;;;17.82;86.63;97163.91;1638881;85;20995;-85
2022/08/06 10:39:47;;;;;;;3.45;2.92;;;;;;;17.77;86.77;97168.98;1616282;86;21122;-86
2022/08/06 10:42:13;;;;;;;3.10;2.80;;;;;;;17.69;86.82;97169.50;1641334;85;21061;-85
2022/08/06 10:44:40;;;;;;;3.58;3.27;;;;;;;17.65;87.03;97168.78;1645916;85;21066;-85
2022/08/06 10:47:06;;;;;;;3.83;3.52;;;;;;;17.58;87.26;97174.58;1643925;85;21090;-84
2022/08/06 10:49:33;;;;;;;2.90;2.70;;;;;;;17.47;87.00;97179.95;1646604;85;21007;-85
2022/08/06 10:51:59;;;;;;;4.17;3.12;;;;;;;17.43;87.59;97187.14;1642770;85;21087;-85
2022/08/06 10:54:25;;;;;;;3.42;3.12;;;;;;;17.42;87.73;97185.53;1652904;86;21082;-85
2022/08/06 10:56:53;;;;;;;3.87;3.35;;;;;;;17.36;87.85;97185.31;1639139;86;21359;-84
2022/08/06 10:59:20;;;;;;;4.05;3.40;;;;;;;17.34;88.32;97183.40;1693591;83;21344;-82
2022/08/06 11:02:13;;;;;;;2.70;2.50;;;;;;;17.37;88.42;97185.61;1690229;83;21519;-83
2022/08/06 11:04:50;;;;;;;3.58;3.17;;;;;;;17.35;88.53;97182.39;1681576;84;21043;-85
2022/08/06 11:07:35;;;;;;;3.12;2.87;;;;;;;17.30;88.50;97184.83;1678648;84;20983;-83
2022/08/06 11:10:33;;;;;;;3.15;2.95;;;;;;;17.32;88.80;97188.05;1672031;84;21003;-83
2022/08/06 11:13:23;;;;;;;3.80;3.08;;;;;;;17.38;89.07;97190.36;1669932;84;20980;-82
2022/08/06 11:15:50;;;;;;;3.85;3.55;;;;;;;17.40;89.01;97191.77;1681245;84;20999;-83
2022/08/06 11:18:16;;;;;;;4.10;3.70;;;;;;;17.38;88.77;97187.73;1677238;84;20997;-82
2022/08/06 11:20:44;;;;;;;7.60;3.92;;;;;;;17.37;89.06;97190.06;1671335;84;21008;-83
2022/08/06 11:23:18;;;;;;;3.70;3.40;;;;;;;17.27;89.07;97179.19;1671480;84;21418;-83
2022/08/06 11:25:46;;;;;;;4.47;3.47;;;;;;;17.36;89.21;97193.70;1679014;84;22072;-83
2022/08/06 11:28:15;;;;;;;3.20;2.90;;;;;;;17.42;89.63;97197.34;1686763;84;21122;-84
2022/08/06 11:30:53;;;;;;;3.25;2.95;;;;;;;17.40;89.34;97194.39;1677472;84;21385;-82
2022/08/06 11:33:21;;;;;;;3.40;3.10;;;;;;;17.39;89.48;97189.34;1682304;84;21161;-84
2022/08/06 11:35:49;;;;;;;3.27;3.00;;;;;;;17.42;89.72;97190.78;1647743;84;21478;-83
2022/08/06 11:38:51;;;;;;;2.60;2.40;;;;;;;17.43;89.72;97189.77;1665471;84;21047;-84
2022/08/06 11:41:29;;;;;;;3.37;3.08;;;;;;;17.50;89.87;97187.92;1656464;84;21382;-83
2022/08/06 11:44:05;;;;;;;2.87;2.67;;;;;;;17.56;89.81;97194.97;1690716;83;21427;-84
2022/08/06 11:46:37;;;;;;;3.50;3.17;;;;;;;17.51;89.60;97190.34;1680971;84;21067;-86
2022/08/06 11:49:21;;;;;;;4.00;3.70;;;;;;;17.54;89.85;97192.55;1689017;84;20958;-86
2022/08/06 11:51:57;;;;;;;4.22;3.83;;;;;;;17.52;89.50;97188.02;1680489;84;21068;-86
2022/08/06 11:54:33;;;;;;;3.87;3.58;;;;;;;17.51;89.74;97199.54;1675205;84;21043;-83